createdAt,value
2022-12-11T00:01:11.318Z,19.27
2022-12-11T00:03:39.564Z,20.03
2022-12-11T00:06:09.210Z,19.30
2022-12-11T00:08:37.845Z,19.23
2022-12-11T00:11:10.108Z,18.40
2022-12-11T00:13:38.321Z,20.03
2022-12-11T00:16:07.909Z,21.77
2022-12-11T00:18:36.368Z,22.00
2022-12-11T00:21:05.867Z,23.20
2022-12-11T00:23:36.038Z,21.97
2022-12-11T00:26:09.291Z,21.80
2022-12-11T00:28:37.668Z,20.13
2022-12-11T00:31:06.806Z,23.47
2022-12-11T00:33:34.877Z,22.50
2022-12-11T00:36:03.869Z,22.27
2022-12-11T00:38:31.931Z,23.80
2022-12-11T00:41:00.499Z,25.77
2022-12-11T00:43:29.902Z,23.10
2022-12-11T00:45:58.136Z,25.50
2022-12-11T00:48:26.280Z,24.33
2022-12-11T00:50:54.926Z,22.30
2022-12-11T00:53:23.122Z,26.43
2022-12-11T00:55:51.519Z,24.30
2022-12-11T00:58:19.718Z,24.67
2022-12-11T01:00:49.980Z,24.87
2022-12-11T01:03:18.569Z,23.03
2022-12-11T01:05:53.729Z,25.10
2022-12-11T01:08:22.309Z,24.43
2022-12-11T01:10:49.611Z,25.23
2022-12-11T01:13:17.773Z,24.53
2022-12-11T01:15:48.161Z,24.80
2022-12-11T01:18:16.920Z,26.63
2022-12-11T01:20:45.118Z,26.27
2022-12-11T01:23:14.470Z,26.30
2022-12-11T01:25:43.702Z,27.77
2022-12-11T01:28:12.582Z,29.03
2022-12-11T01:30:42.874Z,29.60
2022-12-11T01:33:12.453Z,30.30
2022-12-11T01:35:41.216Z,29.97
2022-12-11T01:38:10.830Z,31.70
2022-12-11T01:40:39.011Z,30.30
2022-12-11T01:43:07.227Z,33.00
2022-12-11T01:45:42.394Z,34.40
2022-12-11T01:48:15.526Z,30.70
2022-12-11T01:50:46.842Z,32.97
2022-12-11T01:53:21.309Z,32.70
2022-12-11T01:55:54.597Z,31.47
2022-12-11T01:58:25.775Z,33.43
2022-12-11T02:00:55.055Z,30.70
2022-12-11T02:03:24.861Z,31.17
2022-12-11T02:05:53.329Z,36.50
2022-12-11T02:08:22.592Z,32.13
2022-12-11T02:11:02.680Z,32.30
2022-12-11T02:13:38.650Z,33.17
2022-12-11T02:16:14.028Z,35.13
2022-12-11T02:18:49.773Z,32.40
2022-12-11T02:21:21.819Z,32.10
2022-12-11T02:24:26.145Z,32.70
2022-12-11T02:27:24.901Z,32.47
2022-12-11T02:29:59.613Z,32.50
2022-12-11T02:32:33.071Z,29.43
2022-12-11T02:35:07.247Z,28.50
2022-12-11T02:37:38.907Z,28.43
2022-12-11T02:40:11.248Z,28.37
2022-12-11T02:42:42.951Z,28.90
2022-12-11T02:45:13.769Z,27.90
2022-12-11T02:47:44.065Z,29.03
2022-12-11T02:50:17.847Z,27.20
2022-12-11T02:52:48.155Z,26.27
2022-12-11T02:55:17.913Z,28.40
2022-12-11T02:57:50.007Z,27.10
2022-12-11T03:00:19.810Z,25.00
2022-12-11T03:02:48.363Z,26.87
2022-12-11T03:05:16.740Z,28.97
2022-12-11T03:07:45.693Z,28.13
2022-12-11T03:10:16.843Z,25.40
2022-12-11T03:12:53.063Z,26.90
2022-12-11T03:15:25.075Z,28.77
2022-12-11T03:18:01.932Z,28.03
2022-12-11T03:20:38.780Z,28.70
2022-12-11T03:23:15.602Z,26.87
2022-12-11T03:25:48.091Z,26.40
2022-12-11T03:28:19.984Z,27.07
2022-12-11T03:30:52.800Z,27.00
2022-12-11T03:33:26.730Z,27.97
2022-12-11T03:35:57.733Z,27.90
2022-12-11T03:38:37.706Z,27.60
2022-12-11T03:41:08.546Z,26.97
2022-12-11T03:43:38.151Z,25.53
2022-12-11T03:46:09.145Z,28.07
2022-12-11T03:48:40.645Z,27.40
2022-12-11T03:51:10.445Z,28.20
2022-12-11T03:53:39.369Z,28.00
2022-12-11T03:56:10.965Z,32.90
2022-12-11T03:58:39.677Z,26.47
2022-12-11T04:01:12.376Z,28.37
2022-12-11T04:03:40.597Z,26.33
2022-12-11T04:06:09.162Z,26.73
2022-12-11T04:08:37.351Z,25.93
2022-12-11T04:11:23.581Z,28.00
2022-12-11T04:14:12.280Z,26.43
2022-12-11T04:16:40.832Z,26.53
2022-12-11T04:19:28.129Z,25.87
2022-12-11T04:22:13.556Z,28.37
2022-12-11T04:24:41.892Z,28.70
2022-12-11T04:27:10.035Z,31.57
2022-12-11T04:29:38.154Z,30.20
2022-12-11T04:32:07.881Z,27.37
2022-12-11T04:34:35.993Z,31.43
2022-12-11T04:37:04.122Z,31.30
2022-12-11T04:39:32.300Z,30.17
2022-12-11T04:42:00.422Z,31.00
2022-12-11T04:44:28.454Z,31.80
2022-12-11T04:46:56.493Z,30.23
2022-12-11T04:49:25.918Z,28.13
2022-12-11T04:51:54.045Z,29.03
2022-12-11T04:54:22.325Z,26.80
2022-12-11T04:56:50.405Z,30.03
2022-12-11T04:59:18.506Z,27.90
2022-12-11T05:01:46.949Z,26.27
2022-12-11T05:04:15.275Z,29.37
2022-12-11T05:06:44.869Z,24.13
2022-12-11T05:09:13.767Z,25.83
2022-12-11T05:11:42.196Z,27.07
2022-12-11T05:14:10.385Z,26.27
2022-12-11T05:16:38.460Z,24.90
2022-12-11T05:19:06.658Z,25.53
2022-12-11T05:21:35.335Z,25.87
2022-12-11T05:24:05.567Z,26.47
2022-12-11T05:26:33.795Z,26.80
2022-12-11T05:29:01.935Z,23.87
2022-12-11T05:31:30.185Z,25.57
2022-12-11T05:33:58.378Z,25.60
2022-12-11T05:36:28.530Z,25.30
2022-12-11T05:38:57.958Z,26.40
2022-12-11T05:41:30.532Z,25.73
2022-12-11T05:43:58.651Z,26.10
2022-12-11T05:46:28.972Z,24.70
2022-12-11T05:48:59.264Z,26.27
2022-12-11T05:51:28.174Z,27.07
2022-12-11T05:53:57.917Z,26.40
2022-12-11T05:56:29.506Z,28.33
2022-12-11T05:58:58.555Z,29.47
2022-12-11T06:01:29.100Z,30.83
2022-12-11T06:03:58.198Z,27.90
2022-12-11T06:06:27.153Z,30.10
2022-12-11T06:08:56.721Z,28.30
2022-12-11T06:11:28.291Z,28.80
2022-12-11T06:13:57.163Z,30.20
2022-12-11T06:16:26.318Z,27.47
2022-12-11T06:18:57.993Z,27.90
2022-12-11T06:21:28.193Z,26.97
2022-12-11T06:23:57.905Z,28.30
2022-12-11T06:26:28.221Z,27.53
2022-12-11T06:28:56.563Z,27.67
2022-12-11T06:31:24.746Z,27.87
2022-12-11T06:33:52.897Z,30.10
2022-12-11T06:36:23.541Z,27.20
2022-12-11T06:38:51.906Z,28.50
2022-12-11T06:41:20.472Z,27.70
2022-12-11T06:43:50.774Z,26.83
2022-12-11T06:46:20.689Z,28.33
2022-12-11T06:48:49.660Z,28.77
2022-12-11T06:51:19.519Z,29.53
2022-12-11T06:53:53.117Z,29.30
2022-12-11T06:56:21.839Z,30.20
2022-12-11T06:58:51.911Z,30.43
2022-12-11T07:01:21.933Z,31.20
2022-12-11T07:03:50.388Z,32.50
2022-12-11T07:06:18.498Z,29.63
2022-12-11T07:08:46.604Z,30.03
2022-12-11T07:11:16.955Z,30.47
2022-12-11T07:13:45.204Z,29.60
2022-12-11T07:16:16.381Z,31.07
2022-12-11T07:18:48.504Z,30.93
2022-12-11T07:21:16.772Z,34.10
2022-12-11T07:23:45.084Z,30.93
2022-12-11T07:26:15.386Z,31.77
2022-12-11T07:28:44.113Z,30.60
2022-12-11T07:31:15.652Z,31.90
2022-12-11T07:33:44.351Z,30.47
2022-12-11T07:36:13.884Z,29.23
2022-12-11T07:38:42.606Z,30.00
2022-12-11T07:41:13.115Z,28.87
2022-12-11T07:43:42.337Z,27.60
2022-12-11T07:46:15.140Z,30.10
2022-12-11T07:48:46.773Z,26.40
2022-12-11T07:51:17.311Z,27.23
2022-12-11T07:53:46.485Z,26.97
2022-12-11T07:56:15.634Z,25.37
2022-12-11T07:58:44.047Z,25.93
2022-12-11T08:01:14.940Z,25.57
2022-12-11T08:03:43.645Z,24.70
2022-12-11T08:06:12.662Z,27.87
2022-12-11T08:08:41.808Z,25.37
2022-12-11T08:11:12.387Z,25.90
2022-12-11T08:13:40.841Z,22.50
2022-12-11T08:16:11.293Z,24.50
2022-12-11T08:18:41.263Z,25.27
2022-12-11T08:21:10.668Z,25.53
2022-12-11T08:23:40.028Z,23.30
2022-12-11T08:26:09.564Z,24.03
2022-12-11T08:28:38.297Z,26.77
2022-12-11T08:31:07.717Z,27.30
2022-12-11T08:33:36.602Z,26.37
2022-12-11T08:36:07.739Z,25.80
2022-12-11T08:38:37.663Z,26.40
2022-12-11T08:41:10.554Z,24.60
2022-12-11T08:43:39.415Z,24.10
2022-12-11T08:46:08.255Z,23.23
2022-12-11T08:48:36.756Z,23.10
2022-12-11T08:51:11.633Z,24.90
2022-12-11T08:53:39.999Z,22.47
2022-12-11T08:56:10.501Z,22.50
2022-12-11T08:58:39.272Z,22.73
2022-12-11T09:01:08.907Z,23.37
2022-12-11T09:03:37.431Z,24.37
2022-12-11T09:06:08.992Z,25.17
2022-12-11T09:08:37.603Z,22.93
2022-12-11T09:11:07.139Z,23.03
2022-12-11T09:13:35.706Z,26.83
2022-12-11T09:16:05.769Z,29.70
2022-12-11T09:18:33.959Z,25.60
2022-12-11T09:21:03.054Z,25.13
2022-12-11T09:23:32.844Z,24.33
2022-12-11T09:26:01.091Z,23.73
2022-12-11T09:28:29.186Z,24.87
2022-12-11T09:30:57.393Z,26.00
2022-12-11T09:33:25.540Z,25.20
2022-12-11T09:35:59.065Z,23.67
2022-12-11T09:38:27.504Z,24.67
2022-12-11T09:40:57.280Z,26.00
2022-12-11T09:43:37.523Z,25.00
2022-12-11T09:46:10.196Z,21.97
2022-12-11T09:48:40.897Z,23.53
2022-12-11T09:51:16.710Z,23.47
2022-12-11T09:53:44.874Z,23.53
2022-12-11T09:56:18.964Z,23.50
2022-12-11T09:59:00.245Z,25.47
2022-12-11T10:01:38.767Z,24.00
2022-12-11T10:04:37.953Z,23.77
2022-12-11T10:07:13.260Z,27.23
2022-12-11T10:09:50.149Z,28.23
2022-12-11T10:12:33.711Z,25.47
2022-12-11T10:15:17.755Z,26.90
2022-12-11T10:17:46.731Z,25.80
2022-12-11T10:20:24.472Z,24.90
2022-12-11T10:22:54.619Z,27.53
2022-12-11T10:25:27.448Z,26.20
2022-12-11T10:27:57.543Z,25.07
2022-12-11T10:30:34.180Z,25.20
2022-12-11T10:33:13.172Z,26.20
2022-12-11T10:35:46.362Z,24.10
2022-12-11T10:38:18.533Z,25.70
2022-12-11T10:40:50.431Z,23.73
2022-12-11T10:43:20.209Z,26.57
2022-12-11T10:45:53.050Z,28.03
2022-12-11T10:48:22.170Z,25.93
2022-12-11T10:50:58.967Z,25.70
2022-12-11T10:53:27.763Z,28.03
2022-12-11T10:55:58.117Z,27.00
2022-12-11T10:58:34.026Z,28.13
2022-12-11T11:01:09.740Z,25.17
2022-12-11T11:03:54.280Z,25.83
2022-12-11T11:06:23.849Z,25.73
2022-12-11T11:08:53.874Z,27.87
2022-12-11T11:11:26.245Z,26.17
2022-12-11T11:14:06.466Z,28.80
2022-12-11T11:16:38.344Z,26.93
2022-12-11T11:19:07.096Z,27.30
2022-12-11T11:21:36.874Z,27.10
2022-12-11T11:24:05.361Z,26.50
2022-12-11T11:27:11.081Z,25.13
2022-12-11T11:29:32.090Z,29.57
2022-12-11T11:32:14.937Z,28.80
2022-12-11T11:34:43.226Z,28.10
2022-12-11T11:37:25.347Z,27.50
2022-12-11T11:40:00.287Z,25.53
2022-12-11T11:42:42.212Z,27.77
2022-12-11T11:45:16.950Z,26.57
2022-12-11T11:47:54.149Z,27.63
2022-12-11T11:50:29.114Z,28.70
2022-12-11T11:53:04.054Z,27.00
2022-12-11T11:55:42.191Z,30.37
2022-12-11T11:58:15.511Z,26.00
2022-12-11T12:00:45.206Z,27.43
2022-12-11T12:03:17.516Z,27.77
2022-12-11T12:05:55.141Z,27.90
2022-12-11T12:08:33.651Z,27.10
2022-12-11T12:11:08.639Z,24.23
2022-12-11T12:13:49.589Z,26.00
2022-12-11T12:16:54.561Z,26.97
2022-12-11T12:19:24.642Z,27.70
2022-12-11T12:21:54.765Z,27.40
2022-12-11T12:24:34.666Z,26.00
2022-12-11T12:27:43.394Z,27.27
2022-12-11T12:30:06.922Z,25.43
2022-12-11T12:32:49.546Z,28.73
2022-12-11T12:35:35.617Z,27.70
2022-12-11T12:38:12.538Z,29.53
2022-12-11T12:40:55.588Z,28.33
2022-12-11T12:43:43.799Z,30.97
2022-12-11T12:46:22.110Z,26.77
2022-12-11T12:48:53.388Z,28.20
2022-12-11T12:51:23.649Z,29.03
2022-12-11T12:53:56.826Z,28.73
2022-12-11T12:56:26.903Z,28.27
2022-12-11T12:58:55.079Z,27.10
2022-12-11T13:01:25.564Z,28.93
2022-12-11T13:03:59.195Z,26.00
2022-12-11T13:06:33.933Z,28.03
2022-12-11T13:09:14.764Z,25.63
2022-12-11T13:11:43.157Z,26.33
2022-12-11T13:14:28.715Z,26.83
2022-12-11T13:17:08.539Z,29.63
2022-12-11T13:19:42.544Z,27.17
2022-12-11T13:22:23.467Z,27.90
2022-12-11T13:25:01.663Z,25.60
2022-12-11T13:27:39.696Z,27.67
2022-12-11T13:30:21.852Z,26.10
2022-12-11T13:32:59.515Z,25.47
2022-12-11T13:35:29.416Z,28.90
2022-12-11T13:38:03.131Z,27.23
2022-12-11T13:40:39.097Z,29.73
2022-12-11T13:43:16.674Z,27.93
2022-12-11T13:45:50.033Z,27.67
2022-12-11T13:48:23.892Z,28.83
2022-12-11T13:50:55.403Z,26.80
2022-12-11T13:53:24.254Z,26.80
2022-12-11T13:55:59.419Z,25.57
2022-12-11T13:58:28.907Z,27.47
2022-12-11T14:01:08.694Z,24.20
2022-12-11T14:03:37.383Z,23.47
2022-12-11T14:06:16.601Z,27.50
2022-12-11T14:08:49.290Z,27.57
2022-12-11T14:11:23.289Z,28.97
2022-12-11T14:13:51.654Z,29.70
2022-12-11T14:16:23.170Z,28.30
2022-12-11T14:18:52.777Z,26.80
2022-12-11T14:21:24.380Z,26.83
2022-12-11T14:23:55.006Z,27.00
2022-12-11T14:26:24.760Z,26.90
2022-12-11T14:28:53.906Z,26.20
2022-12-11T14:31:28.210Z,25.27
2022-12-11T14:34:01.998Z,27.20
2022-12-11T14:36:32.836Z,24.07
2022-12-11T14:39:05.201Z,22.97
2022-12-11T14:41:43.990Z,24.63
2022-12-11T14:44:16.673Z,25.53
2022-12-11T14:46:48.199Z,26.83
2022-12-11T14:49:22.232Z,29.13
2022-12-11T14:51:55.374Z,24.70
2022-12-11T14:54:32.577Z,23.50
2022-12-11T14:57:02.819Z,22.77
2022-12-11T14:59:32.907Z,24.37
2022-12-11T15:02:03.918Z,24.97
2022-12-11T15:04:34.464Z,22.30
2022-12-11T15:07:03.899Z,25.93
2022-12-11T15:09:40.725Z,24.33
2022-12-11T15:12:12.522Z,24.97
2022-12-11T15:14:48.524Z,26.40
2022-12-11T15:17:17.131Z,23.57
2022-12-11T15:19:51.223Z,22.63
2022-12-11T15:22:23.833Z,25.70
2022-12-11T15:24:53.915Z,25.13
2022-12-11T15:27:31.604Z,23.10
2022-12-11T15:29:59.777Z,24.50
2022-12-11T15:32:27.991Z,24.70
2022-12-11T15:34:58.189Z,24.10
2022-12-11T15:37:30.307Z,24.70
2022-12-11T15:40:00.931Z,24.03
2022-12-11T15:42:31.494Z,27.00
2022-12-11T15:45:01.196Z,26.10
2022-12-11T15:47:31.597Z,24.17
2022-12-11T15:50:01.107Z,24.17
2022-12-11T15:52:30.583Z,25.90
2022-12-11T15:54:58.601Z,26.07
2022-12-11T15:57:26.697Z,26.33
2022-12-11T15:59:56.285Z,23.50
2022-12-11T16:02:26.822Z,24.27
2022-12-11T16:04:57.257Z,23.57
2022-12-11T16:07:27.236Z,24.60
2022-12-11T16:09:56.687Z,29.50
2022-12-11T16:12:24.870Z,26.70
2022-12-11T16:14:52.970Z,24.37
2022-12-11T16:17:21.087Z,25.23
2022-12-11T16:19:49.252Z,24.70
2022-12-11T16:22:17.565Z,24.30
2022-12-11T16:24:45.664Z,25.00
2022-12-11T16:27:19.965Z,23.47
2022-12-11T16:29:51.590Z,24.17
2022-12-11T16:32:21.297Z,24.70
2022-12-11T16:34:49.380Z,23.90
2022-12-11T16:37:17.538Z,24.77
2022-12-11T16:39:46.925Z,24.83
2022-12-11T16:42:16.362Z,24.60
2022-12-11T16:44:44.823Z,23.90
2022-12-11T16:47:13.308Z,23.43
2022-12-11T16:49:42.422Z,23.40
2022-12-11T16:52:10.700Z,24.40
2022-12-11T16:54:38.962Z,26.20
2022-12-11T16:57:07.034Z,26.03
2022-12-11T16:59:37.680Z,23.00
2022-12-11T17:02:06.521Z,25.30
2022-12-11T17:04:34.715Z,25.27
2022-12-11T17:07:02.845Z,23.20
2022-12-11T17:09:31.278Z,25.30
2022-12-11T17:11:59.937Z,25.67
2022-12-11T17:14:28.652Z,24.17
2022-12-11T17:16:58.376Z,24.40
2022-12-11T17:19:26.401Z,25.23
2022-12-11T17:21:55.577Z,25.03
2022-12-11T17:24:23.795Z,23.30
2022-12-11T17:26:53.170Z,23.97
2022-12-11T17:29:22.095Z,28.47
2022-12-11T17:31:50.424Z,25.23
2022-12-11T17:34:20.046Z,23.70
2022-12-11T17:36:48.402Z,26.20
2022-12-11T17:39:16.668Z,25.30
2022-12-11T17:41:44.748Z,24.63
2022-12-11T17:44:12.866Z,24.23
2022-12-11T17:46:41.031Z,23.63
2022-12-11T17:49:09.098Z,24.47
2022-12-11T17:51:39.641Z,24.60
2022-12-11T17:54:07.788Z,24.90
2022-12-11T17:56:36.246Z,23.87
2022-12-11T17:59:04.917Z,24.50
2022-12-11T18:01:33.876Z,24.27
2022-12-11T18:04:02.656Z,26.87
2022-12-11T18:06:31.273Z,25.40
2022-12-11T18:09:01.359Z,25.80
2022-12-11T18:11:29.636Z,24.63
2022-12-11T18:13:57.953Z,25.57
2022-12-11T18:16:28.820Z,26.97
2022-12-11T18:18:57.553Z,24.23
2022-12-11T18:21:28.154Z,26.13
2022-12-11T18:23:56.205Z,22.87
2022-12-11T18:26:26.409Z,25.10
2022-12-11T18:28:55.101Z,25.20
2022-12-11T18:31:23.925Z,26.27
2022-12-11T18:33:53.172Z,25.57
2022-12-11T18:36:21.993Z,25.53
2022-12-11T18:38:50.594Z,26.70
2022-12-11T18:41:20.006Z,25.27
2022-12-11T18:43:49.815Z,25.40
2022-12-11T18:46:19.483Z,25.20
2022-12-11T18:48:49.270Z,24.13
2022-12-11T18:51:22.664Z,26.73
2022-12-11T18:53:51.430Z,24.10
2022-12-11T18:56:21.190Z,26.10
2022-12-11T18:58:53.172Z,25.60
2022-12-11T19:01:22.690Z,27.57
2022-12-11T19:03:51.587Z,23.80
2022-12-11T19:06:21.459Z,26.13
2022-12-11T19:08:49.608Z,30.23
2022-12-11T19:11:19.205Z,27.30
2022-12-11T19:13:48.463Z,26.60
2022-12-11T19:16:21.206Z,26.80
2022-12-11T19:18:50.022Z,25.50
2022-12-11T19:21:19.320Z,28.00
2022-12-11T19:23:48.308Z,28.30
2022-12-11T19:26:18.718Z,27.73
2022-12-11T19:28:47.723Z,26.87
2022-12-11T19:31:22.608Z,24.77
2022-12-11T19:33:50.858Z,26.00
2022-12-11T19:36:21.963Z,24.77
2022-12-11T19:38:50.720Z,26.30
2022-12-11T19:41:20.360Z,24.50
2022-12-11T19:43:48.706Z,24.83
2022-12-11T19:46:19.900Z,25.93
2022-12-11T19:48:50.301Z,27.83
2022-12-11T19:51:20.834Z,28.07
2022-12-11T19:53:50.335Z,27.90
2022-12-11T19:56:20.198Z,24.70
2022-12-11T19:58:48.818Z,27.47
2022-12-11T20:01:24.992Z,27.83
2022-12-11T20:03:54.170Z,33.17
2022-12-11T20:06:22.969Z,33.93
2022-12-11T20:08:51.507Z,32.07
2022-12-11T20:11:19.757Z,27.93
2022-12-11T20:13:48.315Z,30.53
2022-12-11T20:16:20.033Z,28.57
2022-12-11T20:18:58.347Z,25.50
2022-12-11T20:21:27.623Z,31.83
2022-12-11T20:23:55.927Z,29.73
2022-12-11T20:26:26.450Z,29.80
2022-12-11T20:28:54.946Z,27.33
2022-12-11T20:31:25.837Z,28.70
2022-12-11T20:33:56.953Z,27.40
2022-12-11T20:36:27.138Z,29.03
2022-12-11T20:38:55.304Z,28.67
2022-12-11T20:41:25.791Z,28.10
2022-12-11T20:43:55.024Z,31.70
2022-12-11T20:46:25.274Z,28.70
2022-12-11T20:48:54.314Z,28.67
2022-12-11T20:51:26.313Z,29.03
2022-12-11T20:53:59.244Z,28.90
2022-12-11T20:56:30.345Z,28.30
2022-12-11T20:59:00.058Z,31.40
2022-12-11T21:01:31.007Z,30.23
2022-12-11T21:04:00.238Z,29.77
2022-12-11T21:06:31.651Z,25.00
2022-12-11T21:09:02.551Z,28.50
2022-12-11T21:11:30.690Z,28.57
2022-12-11T21:13:58.863Z,28.80
2022-12-11T21:16:27.436Z,26.97
2022-12-11T21:18:56.105Z,29.37
2022-12-11T21:21:24.521Z,28.20
2022-12-11T21:23:52.791Z,27.07
2022-12-11T21:26:22.632Z,28.00
2022-12-11T21:28:50.793Z,22.10
2022-12-11T21:31:20.453Z,25.77
2022-12-11T21:33:49.367Z,28.00
2022-12-11T21:36:18.382Z,30.93
2022-12-11T21:38:47.589Z,23.33
2022-12-11T21:41:19.128Z,25.43
2022-12-11T21:46:39.589Z,25.97
2022-12-11T21:49:09.492Z,25.10
2022-12-11T21:51:44.032Z,26.07
2022-12-11T21:54:17.310Z,28.00
2022-12-11T21:56:46.434Z,28.20
2022-12-11T21:59:16.358Z,26.97
2022-12-11T22:01:47.047Z,24.60
2022-12-11T22:04:16.480Z,24.50
2022-12-11T22:06:47.334Z,25.30
2022-12-11T22:09:17.785Z,25.80
2022-12-11T22:11:47.194Z,21.47
2022-12-11T22:14:18.181Z,22.33
2022-12-11T22:16:46.636Z,19.73
2022-12-11T22:19:14.913Z,21.40
2022-12-11T22:21:43.098Z,22.33
2022-12-11T22:24:11.251Z,20.90
2022-12-11T22:26:40.105Z,20.00
2022-12-11T22:29:08.241Z,19.83
2022-12-11T22:31:37.747Z,22.77
2022-12-11T22:34:05.931Z,25.97
2022-12-11T22:36:34.018Z,22.33
2022-12-11T22:39:02.952Z,32.87
2022-12-11T22:41:33.329Z,20.00
2022-12-11T22:44:01.652Z,25.20
2022-12-11T22:46:31.205Z,33.63
2022-12-11T22:49:00.801Z,24.77
2022-12-11T22:51:28.982Z,19.90
2022-12-11T22:53:57.242Z,19.80
2022-12-11T22:56:25.938Z,18.00
2022-12-11T22:58:54.108Z,16.40
2022-12-11T23:01:24.618Z,17.30
2022-12-11T23:03:53.569Z,15.73
2022-12-11T23:06:25.905Z,16.87
2022-12-11T23:08:57.707Z,17.90
2022-12-11T23:11:28.081Z,18.90
2022-12-11T23:13:56.666Z,17.53
2022-12-11T23:16:26.750Z,15.70
2022-12-11T23:18:55.762Z,18.30
2022-12-11T23:21:26.670Z,17.93
2022-12-11T23:23:54.712Z,17.93
2022-12-11T23:26:23.850Z,17.80
2022-12-11T23:28:52.740Z,17.33
2022-12-11T23:31:21.508Z,16.37
2022-12-11T23:33:49.678Z,17.00
2022-12-11T23:36:17.806Z,17.80
2022-12-11T23:38:54.148Z,16.70
2022-12-11T23:41:23.716Z,15.30
2022-12-11T23:43:51.932Z,17.03
2022-12-11T23:46:22.703Z,16.33
2022-12-11T23:48:51.606Z,15.57
2022-12-11T23:51:21.520Z,15.67
2022-12-11T23:53:51.149Z,14.63
2022-12-11T23:57:12.079Z,18.50
2022-12-11T23:59:40.190Z,16.17
